• Join FlightAware (Why Join?)
  • Login
  • US Flag 
05:35AM EDT


 

Airport Tracker/Info


-or-


 

Live Flight TrackerFlight Track Log ✈ AWE703 ✈ 09-May-2013 ✈ EDDF / FRA - KPHL

Flight Track Log - Related Links

Times and Time Zones

All times are in EDT time to prevent confusion due to time zone crossing. See the AWE703 flight status page for this flight to view local times or setup timezone preferences in your user account.

Time Position Orientation Groundspeed Altitude Reporting Facility
EDT Latitude Longitude Course Direction KTS MPH feet Rate Location/Type
07:25AM 50.0310 8.5340 249° West 171 197 1,300  Level FlightAware
07:25AM 50.0260 8.5070 254° West 173 199 2,300 2,040 Climbing FlightAware
07:26AM 50.0290 8.4690 277° West 183 211 3,200 1,800 Climbing FlightAware
07:26AM 50.0280 8.4310 268° West 197 227 4,000 1,440 Climbing FlightAware
07:26AM 50.0230 8.3950 258° West 229 264 4,400 1,500 Climbing FlightAware
07:27AM 50.0200 8.3690 260° West 234 269 5,000 1,680 Climbing FlightAware
07:27AM 50.0160 8.3350 260° West 244 281 5,700 2,280 Climbing FlightAware
07:28AM 50.0240 8.2390 277° West 267 307 7,900 2,880 Climbing FlightAware
07:28AM 50.0370 8.1940 294° West 273 314 9,100 2,400 Climbing FlightAware
07:29AM 50.0650 8.1150 299° West 295 339 10,700 1,620 Climbing FlightAware
07:30AM 50.1050 8.0630 320° Northwest 348 400 11,300 1,380 Climbing FlightAware
07:30AM 50.1750 7.9860 325° Northwest 388 447 12,700 2,160 Climbing FlightAware
07:31AM 50.2350 7.9210 325° Northwest 397 457 14,600 2,700 Climbing FlightAware
07:32AM 50.2960 7.8540 325° Northwest 408 470 16,300 2,460 Climbing FlightAware
07:33AM 50.3670 7.7770 325° Northwest 412 474 18,100 2,280 Climbing FlightAware
07:33AM 50.4260 7.7010 321° Northwest 415 478 19,600 2,220 Climbing FlightAware
07:34AM 50.4860 7.5990 313° West 428 493 21,300 2,100 Climbing FlightAware
07:35AM 50.5370 7.5110 312° West 435 501 22,600 2,040 Climbing FlightAware
07:35AM 50.6020 7.4000 313° West 437 503 24,200 2,400 Climbing FlightAware
07:36AM 50.6560 7.3080 313° West 433 498 26,000 2,400 Climbing FlightAware
07:37AM 50.7110 7.2130 312° West 432 497 27,400 3,060 Climbing FlightAware
07:37AM 50.7670 7.1170 313° West 390 449 30,400 2,820 Climbing FlightAware
07:38AM 50.8150 7.0320 312° West 386 444 31,400 1,560 Climbing FlightAware
07:39AM 50.8640 6.9460 312° West 389 448 32,500 1,320 Climbing FlightAware
07:40AM 50.9190 6.8510 313° West 386 444 33,300 720 Climbing FlightAware
07:40AM 50.9680 6.7650 312° West 407 468 33,600 480 Climbing FlightAware
07:41AM 51.0190 6.6750 312° West 412 474 34,000 240 Climbing FlightAware
07:42AM 51.0780 6.5710 312° West 419 482 34,000  Level FlightAware
07:42AM 51.1260 6.4860 312° West 422 486 34,000  Level FlightAware
07:43AM 51.1880 6.3730 311° West 419 482 34,000  Level FlightAware
07:44AM 51.2400 6.2790 311° West 423 487 34,000  Level FlightAware
07:44AM 51.2860 6.1950 311° West 422 486 34,000  Level FlightAware
07:45AM 51.3460 6.0870 312° West 422 486 34,000  Level FlightAware
07:46AM 51.4030 5.9860 312° West 422 486 34,000  Level FlightAware
07:47AM 51.4580 5.8850 311° West 422 486 34,000  Level FlightAware
07:47AM 51.5100 5.7910 312° West 424 488 34,000  Level FlightAware
07:48AM 51.5620 5.6950 311° West 426 490 34,000  Level FlightAware
07:49AM 51.6130 5.6000 311° West 428 493 34,000  Level FlightAware
07:49AM 51.6740 5.4870 311° West 431 496 34,000 -1,200 Level FlightAware
07:50AM 51.7238 5.4002 311° West 468 539 32,500  Descending FlightAware UK
07:50AM 51.7270 5.3890 311° West 434 499 34,000  Climbing FlightAware
07:50AM 51.7727 5.3142 311° West 470 541 32,500  Descending FlightAware UK
07:51AM 51.7840 5.2830 311° West 436 502 34,000 1,500 Climbing FlightAware
07:51AM 51.8370 5.1840 311° West 439 505 34,000 -1,320 Level FlightAware
07:52AM 51.8905 5.0913 311° West 468 539 32,500  Descending FlightAware UK
07:52AM 51.8970 5.0700 311° West 442 509 34,000  Climbing FlightAware
07:52AM 51.9313 5.0175 311° West 468 539 32,500  Descending FlightAware UK
07:53AM 51.9510 4.9680 311° West 443 510 34,000 1,380 Climbing FlightAware
07:53AM 52.0050 4.8670 311° West 446 513 34,000 -1,500 Level FlightAware
07:54AM 52.0420 4.8039 311° West 470 541 32,500  Descending FlightAware UK
07:54AM 52.0630 4.7570 311° West 448 516 34,000  Climbing FlightAware
07:54AM 52.0989 4.6973 311° West 474 545 32,500  Descending FlightAware UK
07:55AM 52.1170 4.6530 311° West 450 518 34,000  Climbing FlightAware
07:55AM 52.1319 4.6364 311° West 472 543 32,500 -2,940 Descending FlightAware UK
07:55AM 52.1714 4.5586 311° West 472 543 32,500 2,040 Level FlightAware UK
07:56AM 52.1810 4.5310 311° West 451 519 34,000  Climbing FlightAware
07:56AM 52.2453 4.4201 311° West 474 545 32,500  Descending FlightAware UK
07:56AM 52.2340 4.4280 311° West 452 520 34,000  Climbing FlightAware
07:57AM 52.2691 4.3731 311° West 474 545 32,500  Descending FlightAware UK
07:57AM 52.2890 4.3230 311° West 453 521 34,000 1,320 Climbing FlightAware
07:58AM 52.3480 4.2070 310° West 453 521 34,000 -1,260 Level FlightAware
07:58AM 52.3991 4.1226 310° West 474 545 32,500  Descending FlightAware UK
07:58AM 52.4030 4.1010 310° West 454 522 34,000 1,740 Climbing FlightAware
07:59AM 52.4550 3.9990 310° West 454 522 34,000  Level FlightAware
08:00AM 52.5310 3.8490 310° West 454 522 34,000  Level FlightAware
08:01AM 52.5840 3.7450 310° West 454 522 34,000 -1,620 Level FlightAware
08:01AM 52.6163 3.6954 310° West 470 541 32,500  Descending FlightAware UK
08:01AM 52.6300 3.6520 310° West 453 521 34,000  Climbing FlightAware
08:02AM 52.6880 3.5521 310° West 474 545 32,500  Descending FlightAware UK
08:02AM 52.6860 3.5400 310° West 454 522 34,000  Climbing FlightAware
08:02AM 52.7281 3.4725 310° West 470 541 32,500  Descending FlightAware UK
08:03AM 52.7410 3.4280 310° West 450 518 34,000  Climbing FlightAware
08:03AM 52.7694 3.3715 310° West 472 543 32,500 -2,700 Descending FlightAware UK
08:03AM 52.7856 3.3175 296° West 474 545 32,500 4,680 Level FlightAware UK
08:03AM 52.7750 3.3270 296° West 443 510 34,000 1,920 Climbing FlightAware
08:04AM 52.8060 3.1790 289° West 436 502 34,000  Level FlightAware
08:05AM 52.8320 3.0550 289° West 436 502 34,000 -1,620 Level FlightAware
08:05AM 52.8511 2.9970 289° West 468 539 32,500 -2,280 Descending FlightAware UK
08:05AM 52.8669 2.9213 289° West 468 539 32,500 3,720 Level FlightAware UK
08:05AM 52.8560 2.9350 289° West 440 506 34,000  Climbing FlightAware
08:06AM 52.8824 2.8450 289° West 472 543 32,500  Descending FlightAware UK
08:06AM 52.8840 2.7970 288° West 443 510 34,000  Climbing FlightAware
08:06AM 52.8935 2.7874 288° West 474 545 32,500  Descending FlightAware UK
08:07AM 52.9100 2.6650 288° West 446 513 34,000 1,020 Climbing FlightAware
08:07AM 52.9400 2.5100 288° West 447 514 34,000 -1,440 Level FlightAware
08:08AM 52.9612 2.4380 288° West 480 552 32,500  Descending FlightAware UK
08:08AM 52.9649 2.3772 288° West 448 516 34,000  Climbing FlightAware ADS-B
08:09AM 52.9906 2.2817 288° West 476 548 32,500  Descending FlightAware UK
08:09AM 52.9890 2.2490 288° West 447 514 34,000  Climbing FlightAware
08:09AM 53.0089 2.1838 288° West 478 550 32,500 -2,220 Descending FlightAware UK
08:09AM 53.0237 2.1054 287° West 478 550 32,500 3,180 Level FlightAware UK
08:10AM 53.0160 2.1060 287° West 446 513 34,000  Climbing FlightAware
08:10AM 53.0488 1.9696 287° West 480 552 32,500  Descending FlightAware UK
08:10AM 53.0410 1.9720 287° West 445 512 34,000  Climbing FlightAware
08:10AM 53.0598 1.9105 287° West 480 552 32,500 -2,280 Descending FlightAware UK
08:11AM 53.0743 1.8333 287° West 480 552 32,500 3,720 Level FlightAware UK
08:11AM 53.0650 1.8440 287° West 443 510 34,000  Climbing FlightAware
08:11AM 53.0850 1.7749 287° West 480 552 32,500 -2,340 Descending FlightAware UK
08:12AM 53.0992 1.6972 287° West 480 552 32,400 3,300 Descending FlightAware UK
08:12AM 53.0930 1.6930 287° West 442 509 34,000  Climbing FlightAware
08:12AM 53.1135 1.6195 287° West 476 548 32,400  Descending FlightAware UK
08:12AM 53.1220 1.5350 287° West 439 505 34,000 120 Climbing FlightAware ADS-B
08:13AM 53.1381 1.4839 287° West 474 545 32,500  Descending FlightAware UK
08:13AM 53.1419 1.4260 287° West 439 505 34,000 1,800 Climbing FlightAware ADS-B
08:13AM 53.1597 1.3272 287° West 439 505 34,000 -1,680 Level FlightAware ADS-B
08:14AM 53.1798 1.2526 287° West 472 543 32,500  Descending FlightAware UK
08:14AM 53.1773 1.2287 287° West 440 506 34,000  Climbing FlightAware ADS-B
08:14AM 53.1935 1.1749 287° West 474 545 32,500  Descending FlightAware UK
08:15AM 53.1979 1.1134 287° West 440 506 34,000  Climbing FlightAware ADS-B
08:15AM 53.2137 1.0594 287° West 472 543 32,500 -2,520 Descending FlightAware UK
08:15AM 53.2241 1.0003 286° West 472 543 32,500 2,880 Level FlightAware UK
08:15AM 53.2253 0.9577 286° West 441 507 34,000  Climbing FlightAware ADS-B
08:16AM 53.2412 0.9028 286° West 470 541 32,500  Descending FlightAware UK
08:16AM 53.2489 0.8248 286° West 442 509 34,000  Climbing FlightAware ADS-B
08:16AM 53.2650 0.7665 286° West 474 545 32,500 -2,460 Descending FlightAware UK
08:17AM 53.2753 0.7067 286° West 476 548 32,500 2,280 Level FlightAware UK
08:17AM 53.2814 0.6374 286° West 442 509 34,000  Climbing FlightAware ADS-B
08:17AM 53.2956 0.5889 286° West 480 552 32,500  Descending FlightAware UK
08:18AM 53.3030 0.5120 286° West 444 511 34,000 2,640 Climbing FlightAware
08:18AM 53.3091 0.4775 286° West 444 511 34,000  Level FlightAware ADS-B
08:18AM 53.3261 0.3783 286° West 444 511 34,000  Level FlightAware ADS-B
08:19AM 53.3431 0.2789 286° West 445 512 34,000  Level FlightAware ADS-B
08:19AM 53.3601 0.1780 286° West 445 512 34,000 -1,800 Level FlightAware ADS-B
08:20AM 53.3759 0.1153 286° West 476 548 32,500  Descending FlightAware UK
08:20AM 53.3769 0.0781 286° West 445 512 34,000  Climbing FlightAware ADS-B
08:20AM 53.3923 0.0158 286° West 476 548 32,500  Descending FlightAware UK
08:20AM 53.3951 -0.0299 286° West 447 514 34,000  Climbing FlightAware ADS-B
08:21AM 53.4088 -0.0831 286° West 478 550 32,500  Descending FlightAware UK
08:21AM 53.4117 -0.1293 286° West 445 512 34,000  Climbing FlightAware ADS-B
08:21AM 53.4254 -0.1827 286° West 474 545 32,500  Descending FlightAware UK
08:21AM 53.4289 -0.2335 286° West 445 512 34,000  Climbing FlightAware ADS-B
08:22AM 53.4546 -0.3615 286° West 468 539 32,500  Descending FlightAware UK
08:22AM 53.4567 -0.4022 286° West 447 514 34,000  Climbing FlightAware ADS-B
08:23AM 53.4737 -0.4819 286° West 472 543 32,500  Descending FlightAware UK
08:23AM 53.4864 -0.5859 286° West 447 514 34,000  Climbing FlightAware ADS-B
08:23AM 53.4995 -0.6417 286° West 472 543 32,500  Descending FlightAware UK
08:24AM 53.5044 -0.6970 286° West 449 517 34,000  Climbing FlightAware ADS-B
08:24AM 53.5189 -0.7626 286° West 472 543 32,500  Descending FlightAware UK
08:24AM 53.5235 -0.8161 286° West 451 519 34,000  Climbing FlightAware ADS-B
08:25AM 53.5382 -0.8842 286° West 474 545 32,500 -2,100 Descending FlightAware UK
08:25AM 53.5507 -0.9652 285° West 482 555 32,500 2,640 Level FlightAware UK
08:25AM 53.5518 -0.9955 285° West 451 519 34,000  Climbing FlightAware ADS-B
08:26AM 53.5666 -1.0673 285° West 478 550 32,500  Descending FlightAware UK
08:26AM 53.5685 -1.1006 285° West 453 521 34,000  Climbing FlightAware ADS-B
08:26AM 53.5826 -1.1694 285° West 478 550 32,500  Descending FlightAware UK
08:26AM 53.5844 -1.2027 285° West 449 517 34,000  Climbing FlightAware ADS-B
08:27AM 53.6010 -1.2895 285° West 468 539 32,500  Descending FlightAware UK
08:27AM 53.6023 -1.3179 285° West 438 504 34,000  Climbing FlightAware ADS-B
08:27AM 53.6161 -1.3873 285° West 458 527 32,500  Descending FlightAware UK
08:27AM 53.6201 -1.4336 285° West 431 496 34,000  Climbing FlightAware ADS-B
08:28AM 53.6336 -1.5045 285° West 458 527 32,500  Descending FlightAware UK
08:28AM 53.6378 -1.5505 285° West 434 499 34,000 1,920 Climbing FlightAware ADS-B
08:29AM 53.6534 -1.6526 284° West 436 502 34,000  Level FlightAware ADS-B
08:29AM 53.6685 -1.7523 284° West 435 501 34,000  Level FlightAware ADS-B
08:30AM 53.6835 -1.8512 284° West 434 499 34,000 -1,860 Level FlightAware ADS-B
08:30AM 53.6958 -1.9168 284° West 460 529 32,500  Descending FlightAware UK
08:30AM 53.6988 -1.9528 284° West 435 501 34,000  Climbing FlightAware ADS-B
08:30AM 53.7105 -2.0155 284° West 466 536 32,500  Descending FlightAware UK
08:31AM 53.7140 -2.0555 284° West 437 503 34,000  Climbing FlightAware ADS-B
08:31AM 53.7306 -2.1538 284° West 464 534 32,500 -1,560 Descending FlightAware UK
08:32AM 53.7450 -2.2535 284° West 466 536 32,500 2,160 Level FlightAware UK
08:32AM 53.7450 -2.2700 284° West 439 505 34,000  Climbing FlightAware
08:32AM 53.7593 -2.3535 284° West 462 532 32,500  Descending FlightAware UK
08:32AM 53.7680 -2.4260 284° West 440 506 34,000  Climbing FlightAware
08:33AM 53.7792 -2.4931 284° West 468 539 32,500 -2,700 Descending FlightAware UK
08:33AM 53.7877 -2.5536 283° West 466 536 32,500 3,060 Level FlightAware UK
08:33AM 53.7880 -2.5690 283° West 440 506 34,000  Climbing FlightAware
08:34AM 53.8016 -2.6545 283° West 466 536 32,500  Descending FlightAware UK
08:34AM 53.8070 -2.7040 283° West 440 506 34,000  Climbing FlightAware
08:34AM 53.8182 -2.7749 283° West 464 534 32,500  Descending FlightAware UK
08:35AM 53.8260 -2.8420 283° West 441 507 34,000  Climbing FlightAware
08:35AM 53.8432 -2.9565 283° West 464 534 32,500  Descending FlightAware UK
08:35AM 53.8470 -2.9920 283° West 443 510 34,000  Climbing FlightAware
08:36AM 53.8600 -3.0781 283° West 470 541 32,500  Descending FlightAware UK
08:36AM 53.8650 -3.1280 283° West 443 510 34,000  Climbing FlightAware
08:36AM 53.8768 -3.1998 283° West 472 543 32,500 -2,700 Descending FlightAware UK
08:37AM 53.8850 -3.2600 283° West 468 539 32,500 3,720 Level FlightAware UK
08:37AM 53.8840 -3.2650 283° West 441 507 34,000  Climbing FlightAware
08:37AM 53.9013 -3.3815 283° West 466 536 32,500  Descending FlightAware UK
08:37AM 53.9040 -3.4120 283° West 439 505 34,000  Climbing FlightAware
08:38AM 53.9148 -3.4823 283° West 464 534 32,500  Descending FlightAware UK
08:38AM 53.9220 -3.5460 283° West 438 504 34,000  Climbing FlightAware
08:39AM 53.9414 -3.6828 283° West 462 532 32,500  Descending FlightAware UK
08:39AM 53.9430 -3.7000 283° West 438 504 34,000  Climbing FlightAware
08:39AM 53.9591 -3.8027 283° West 462 532 32,500  Descending FlightAware UK
08:39AM 53.9670 -3.8330 283° West 443 510 34,000  Climbing FlightAware
08:40AM 53.9863 -3.8961 283° West 460 529 32,500 -2,700 Descending FlightAware UK
08:40AM 54.0054 -3.9502 301° West 462 532 32,500 3,060 Level FlightAware UK
08:40AM 54.0120 -3.9650 301° West 447 514 34,000  Climbing FlightAware
08:41AM 54.0386 -4.0393 301° West 462 532 32,500 -2,460 Descending FlightAware UK
08:41AM 54.0589 -4.0922 303° West 460 529 32,500 4,260 Level FlightAware UK
08:41AM 54.0570 -4.0820 303° West 446 513 34,000  Climbing FlightAware
08:41AM 54.0923 -4.1803 303° West 458 527 32,500  Descending FlightAware UK
08:42AM 54.1010 -4.2010 303° West 447 514 34,000  Climbing FlightAware
08:42AM 54.1273 -4.2916 303° West 460 529 32,500 -2,280 Descending FlightAware UK
08:42AM 54.1418 -4.3497 293° West 460 529 32,500 3,900 Level FlightAware UK
08:42AM 54.1400 -4.3430 293° West 443 510 34,000  Climbing FlightAware
08:43AM 54.1597 -4.4276 293° West 454 522 32,500 -2,460 Descending FlightAware UK
08:43AM 54.1722 -4.4862 290° West 454 522 32,500 4,260 Level FlightAware UK
08:43AM 54.1700 -4.4760 290° West 439 505 34,000  Climbing FlightAware
08:43AM 54.1848 -4.5448 290° West 454 522 32,500 -2,760 Descending FlightAware UK
08:44AM 54.1977 -4.6028 291° West 454 522 32,500 3,600 Level FlightAware UK
08:44AM 54.1980 -4.6020 291° West 435 501 34,000  Climbing FlightAware
08:44AM 54.2153 -4.6796 291° West 450 518 32,500 -2,220 Descending FlightAware UK
08:44AM 54.2328 -4.7563 291° West 448 516 32,500 3,180 Level FlightAware UK
08:44AM 54.2300 -4.7430 291° West 433 498 34,000  Climbing FlightAware
08:45AM 54.2501 -4.8329 291° West 448 516 32,500 -2,400 Descending FlightAware UK
08:45AM 54.2632 -4.8902 291° West 446 513 32,500 4,500 Level FlightAware UK
08:45AM 54.2590 -4.8730 291° West 434 499 34,000  Climbing FlightAware
08:45AM 54.2763 -4.9478 291° West 450 518 32,500 -2,700 Descending FlightAware UK
08:46AM 54.2893 -5.0055 291° West 448 516 32,500 3,060 Level FlightAware UK
08:46AM 54.2920 -5.0180 291° West 435 501 34,000  Climbing FlightAware
08:46AM 54.3108 -5.1019 291° West 450 518 32,500 -2,460 Descending FlightAware UK
08:46AM 54.3234 -5.1599 291° West 454 522 32,500 4,260 Level FlightAware UK
08:46AM 54.3210 -5.1480 291° West 434 499 34,000  Climbing FlightAware
08:47AM 54.3358 -5.2173 291° West 456 525 32,500 -2,760 Descending FlightAware UK
08:47AM 54.3484 -5.2752 290° West 456 525 32,500 3,600 Level FlightAware UK
08:47AM 54.3470 -5.2680 290° West 435 501 34,000  Climbing FlightAware
08:47AM 54.3652 -5.3527 290° West 454 522 32,500 -2,580 Descending FlightAware UK
08:48AM 54.3777 -5.4109 290° West 454 522 32,500 3,180 Level FlightAware UK
08:48AM 54.3790 -5.4170 290° West 433 498 34,000  Climbing FlightAware
08:48AM 54.3985 -5.5076 290° West 452 520 32,500 -2,400 Descending FlightAware UK
08:49AM 54.4110 -5.5656 290° West 454 522 32,500 4,500 Level FlightAware UK
08:49AM 54.4070 -5.5470 290° West 432 497 34,000  Climbing FlightAware
08:49AM 54.4275 -5.6428 290° West 454 522 32,500 -2,280 Descending FlightAware UK
08:49AM 54.4399 -5.7007 290° West 454 522 32,500 3,900 Level FlightAware UK
08:49AM 54.4380 -5.6940 290° West 431 496 34,000  Climbing FlightAware
08:50AM 54.4562 -5.7779 290° West 450 518 32,500 -2,460 Descending FlightAware UK
08:50AM 54.4684 -5.8356 290° West 452 520 32,500 4,260 Level FlightAware UK
08:50AM 54.4640 -5.8190 290° West 429 494 34,000  Climbing FlightAware
08:50AM 54.4804 -5.8933 290° West 452 520 32,500 -2,760 Descending FlightAware UK
08:51AM 54.4926 -5.9510 290° West 450 518 32,500 3,600 Level FlightAware UK
08:51AM 54.4910 -5.9490 290° West 430 495 34,000  Climbing FlightAware
08:51AM 54.5089 -6.0279 290° West 452 520 32,500 -2,580 Descending FlightAware UK
08:51AM 54.5209 -6.0858 290° West 450 518 32,500 3,180 Level FlightAware UK
08:51AM 54.5220 -6.0960 290° West 431 496 34,000  Climbing FlightAware
08:52AM 54.5407 -6.1816 290° West 452 520 32,500  Descending FlightAware UK
08:52AM 54.5490 -6.2270 290° West 432 497 34,000  Climbing FlightAware
08:52AM 54.5650 -6.2980 290° West 452 520 32,500 -2,700 Descending FlightAware UK
08:53AM 54.5768 -6.3556 290° West 452 520 32,500 3,060 Level FlightAware UK
08:53AM 54.5780 -6.3670 290° West 432 497 34,000  Climbing FlightAware
08:53AM 54.5969 -6.4530 290° West 450 518 32,500 -2,460 Descending FlightAware UK
08:53AM 54.6094 -6.5116 290° West 450 518 32,500 4,260 Level FlightAware UK
08:53AM 54.6050 -6.4980 290° West 432 497 34,000  Climbing FlightAware
08:54AM 54.6296 -6.6089 290° West 448 516 32,500  Descending FlightAware UK
08:54AM 54.6320 -6.6290 290° West 432 497 34,000  Climbing FlightAware
08:54AM 54.6492 -6.7065 290° West 450 518 32,500 -2,580 Descending FlightAware UK
08:55AM 54.6611 -6.7650 289° West 448 516 32,500 3,180 Level FlightAware UK
08:55AM 54.6610 -6.7730 289° West 433 498 34,000  Climbing FlightAware
08:55AM 54.6806 -6.8630 289° West 452 520 32,500 -2,400 Descending FlightAware UK
08:56AM 54.6924 -6.9220 289° West 450 518 32,500 4,500 Level FlightAware UK
08:56AM 54.6870 -6.9050 289° West 435 501 34,000  Climbing FlightAware
08:56AM 54.7041 -6.9812 289° West 452 520 32,500 -2,700 Descending FlightAware UK
08:56AM 54.7159 -7.0404 289° West 450 518 32,500  Level FlightAware UK
08:56AM 54.7276 -7.0997 289° West 452 520 32,500  Level FlightAware UK
08:57AM 54.7393 -7.1591 289° West 454 522 32,500 2,700 Level FlightAware UK
08:57AM 54.7400 -7.1720 289° West 434 499 34,000  Climbing FlightAware
08:57AM 54.7590 -7.2581 289° West 454 522 32,500 -2,760 Descending FlightAware UK
08:58AM 54.7713 -7.3173 290° West 454 522 32,500  Level FlightAware UK
08:58AM 54.7837 -7.3765 290° West 454 522 32,500 2,400 Level FlightAware UK
08:58AM 54.7870 -7.4010 290° West 438 504 34,000  Climbing FlightAware
08:58AM 54.8081 -7.4944 290° West 454 522 32,500 -2,580 Descending FlightAware UK
08:59AM 54.8204 -7.5537 290° West 454 522 32,500 3,900 Level FlightAware UK
08:59AM 54.8130 -7.5260 290° West 438 504 34,000  Climbing FlightAware
08:59AM 54.8367 -7.6330 290° West 454 522 32,500 -2,460 Descending FlightAware UK
08:59AM 54.8488 -7.6925 289° West 454 522 32,500 4,260 Level FlightAware UK
08:59AM 54.8390 -7.6570 289° West 438 504 34,000  Climbing FlightAware
09:00AM 54.8607 -7.7521 289° West 454 522 32,500 -2,760 Descending FlightAware UK
09:00AM 54.8724 -7.8119 289° West 452 520 32,500 4,500 Level FlightAware UK
09:00AM 54.8650 -7.7890 289° West 436 502 34,000  Climbing FlightAware
09:00AM 54.8842 -7.8716 289° West 454 522 32,500 -2,700 Descending FlightAware UK
09:01AM 54.8956 -7.9317 288° West 454 522 32,500 2,640 Level FlightAware UK
09:01AM 54.8960 -7.9490 288° West 436 502 34,000  Climbing FlightAware
09:01AM 54.9179 -8.0520 288° West 452 520 32,500 -2,400 Descending FlightAware UK
09:02AM 54.9289 -8.1123 287° West 450 518 32,500 4,500 Level FlightAware UK
09:02AM 54.9210 -8.0860 287° West 439 505 34,000  Climbing FlightAware
09:02AM 54.9398 -8.1727 287° West 450 518 32,500 -2,700 Descending FlightAware UK
09:02AM 54.9507 -8.2333 287° West 448 516 32,500 3,720 Level FlightAware UK
09:02AM 54.9430 -8.2090 287° West 440 506 34,000  Climbing FlightAware
09:03AM 54.9655 -8.3139 287° West 450 518 32,500 -2,520 Descending FlightAware UK
09:03AM 54.9771 -8.3743 288° West 450 518 32,500 2,760 Level FlightAware UK
09:03AM 54.9780 -8.3950 288° West 439 505 34,000  Climbing FlightAware
09:03AM 54.9968 -8.4748 288° West 450 518 32,500 -2,700 Descending FlightAware UK
09:04AM 55.0085 -8.5353 289° West 448 516 32,500 3,720 Level FlightAware UK
09:04AM 55.0040 -8.5290 289° West 439 505 34,000  Climbing FlightAware
09:04AM 55.0238 -8.6161 289° West 450 518 32,500 -2,520 Descending FlightAware UK
09:04AM 55.0352 -8.6761 288° West 450 518 32,500 3,300 Level FlightAware UK
09:04AM 55.0320 -8.6790 288° West 443 510 34,000  Climbing FlightAware
09:05AM 55.0502 -8.7575 288° West 450 518 32,500 -2,760 Descending FlightAware UK
09:05AM 55.0610 -8.8189 287° West 452 520 32,500 3,600 Level FlightAware UK
09:05AM 55.0560 -8.8180 287° West 445 512 34,000  Climbing FlightAware
09:05AM 55.0751 -8.9011 287° West 452 520 32,500 -2,580 Descending FlightAware UK
09:06AM 55.0858 -8.9627 287° West 458 527 32,500 3,900 Level FlightAware UK
09:06AM 55.0800 -8.9540 287° West 446 513 34,000 1,980 Climbing FlightAware
09:06AM 55.1040 -9.0930 287° West 445 512 34,000  Level FlightAware
09:07AM 55.1270 -9.2160 288° West 444 511 34,000  Level FlightAware
09:09AM 55.2060 -9.6760 279° West 412 474 34,000  Level FlightAware
09:10AM 55.1710 -9.7150 279° West  Level Estimated
09:10AM 55.2320 -9.8330 286° West 409 471 34,000  Level FlightAware
09:11AM 55.2540 -9.9640 286° West 408 470 34,000  Level FlightAware
09:12AM 55.2750 -10.0910 286° West 408 470 34,000  Level FlightAware
09:12AM 55.2990 -10.2340 286° West 407 468 34,000  Level FlightAware
09:13AM 55.3210 -10.3650 286° West 408 470 34,000  Level FlightAware
09:14AM 55.3410 -10.4910 286° West 408 470 34,000  Level FlightAware
09:14AM 55.3650 -10.6350 286° West 408 470 34,000  Level FlightAware
09:15AM 55.3830 -10.7450 286° West 407 468 34,000  Level FlightAware
09:16AM 55.4150 -10.9470 286° West 404 465 34,000  Level FlightAware
09:17AM 55.4360 -11.0760 286° West 401 461 34,000  Level FlightAware
09:17AM 55.4560 -11.2030 286° West 399 459 34,000  Level FlightAware
09:18AM 55.4780 -11.3440 285° West 397 457 34,000  Level FlightAware
09:19AM 55.4980 -11.4700 286° West 394 453 34,000  Level FlightAware
09:20AM 55.5170 -11.5920 285° West 393 452 34,000  Level FlightAware
09:20AM 55.5380 -11.7330 285° West 395 455 34,000  Level FlightAware
09:21AM 55.5570 -11.8560 285° West 396 456 34,000  Level FlightAware
09:22AM 55.5790 -11.9990 285° West 397 457 34,000  Level FlightAware
09:22AM 55.5970 -12.1220 285° West 396 456 34,000  Level FlightAware
09:23AM 55.6180 -12.2560 286° West 397 457 34,000  Level FlightAware
09:24AM 55.6340 -12.3710 284° West 400 460 34,000 300 Level FlightAware
09:25AM 55.6620 -12.5520 285° West 403 464 34,500 600 Climbing FlightAware
09:26AM 55.6890 -12.7410 284° West 408 470 35,200 720 Climbing FlightAware
09:26AM 55.7110 -12.8970 284° West 412 474 35,800 600 Climbing FlightAware
09:27AM 55.7270 -13.0090 284° West 420 483 36,000 120 Climbing FlightAware
09:28AM 55.7500 -13.1680 284° West 427 491 36,000  Level FlightAware
09:28AM 55.7630 -13.2720 283° West 427 491 36,000  Level FlightAware
09:29AM 55.7780 -13.3890 283° West 427 491 36,000  Level FlightAware
09:30AM 55.7970 -13.5340 283° West 427 491 36,000  Level FlightAware
09:31AM 55.8120 -13.6510 283° West 427 491 36,000  Level FlightAware
09:31AM 55.8280 -13.7670 284° West 427 491 36,000  Level FlightAware
09:32AM 55.8430 -13.8840 283° West 427 491 36,000  Level FlightAware
09:33AM 55.8580 -14.0000 283° West 427 491 36,000  Level FlightAware
09:33AM 55.8770 -14.1460 283° West 427 491 36,000  Level FlightAware
09:34AM 55.8920 -14.2630 283° West 427 491 36,000  Level FlightAware
09:35AM 55.9070 -14.3790 283° West 427 491 36,000  Level FlightAware
09:35AM 55.9220 -14.4960 283° West 427 491 36,000  Level FlightAware
09:36AM 55.9370 -14.6130 283° West 427 491 36,000  Level FlightAware
09:37AM 55.9560 -14.7590 283° West 427 491 36,000  Level FlightAware
09:38AM 55.9710 -14.8760 283° West 427 491 36,000  Level FlightAware
09:40AM 55.9855 -15.2864 274° West  Level Estimated
09:41AM 55.9924 -15.4951 273° West  Level Estimated
09:42AM 55.9989 -15.7040 273° West  Level Estimated
09:43AM 56.0053 -15.9197 273° West  Level Estimated
09:44AM 56.0113 -16.1354 273° West  Level Estimated
09:45AM 56.0169 -16.3513 273° West  Level Estimated
09:46AM 56.0221 -16.5672 273° West  Level Estimated
09:47AM 56.0270 -16.7831 272° West  Level Estimated
09:48AM 56.0314 -16.9991 272° West  Level Estimated
09:49AM 56.0355 -17.2152 272° West  Level Estimated
09:50AM 56.0393 -17.4312 272° West  Level Estimated
09:51AM 56.0426 -17.6474 272° West  Level Estimated
09:52AM 56.0456 -17.8635 271° West  Level Estimated
09:53AM 56.0482 -18.0797 271° West  Level Estimated
09:54AM 56.0504 -18.2960 271° West  Level Estimated
09:55AM 56.0522 -18.5122 271° West  Level Estimated
09:56AM 56.0536 -18.7285 271° West  Level Estimated
09:57AM 56.0547 -18.9448 271° West  Level Estimated
09:58AM 56.0554 -19.1611 270° West  Level Estimated
09:59AM 56.0558 -19.3774 270° West  Level Estimated
10:00AM 56.0557 -19.5937 270° West  Level Estimated
10:01AM 56.0552 -19.8100 270° West  Level Estimated
10:02AM 56.0544 -20.0263 270° West  Level Estimated
10:03AM 56.0532 -20.2425 270° West  Level Estimated
10:03AM 56.0000 -20.0000 264° West 440 506 36,000  Level ETMS Enhanced Traffic Management System
10:04AM 56.0517 -20.4588 269° West  Level Estimated
10:05AM 56.0497 -20.6750 269° West  Level Estimated
10:06AM 56.0474 -20.8913 269° West  Level Estimated
10:07AM 56.0447 -21.1074 269° West  Level Estimated
10:08AM 56.0416 -21.3236 269° West  Level Estimated
10:09AM 55.8560 -22.1673 262° West 440 506 36,000  Level FlightAware Transoceanic
10:10AM 55.8396 -22.3831 262° West 440 506 36,000  Level FlightAware Transoceanic
10:11AM 55.8227 -22.5987 262° West 440 506 36,000  Level FlightAware Transoceanic
10:12AM 55.8055 -22.8141 262° West 440 506 36,000  Level FlightAware Transoceanic
10:13AM 55.7878 -23.0293 262° West 440 506 36,000  Level FlightAware Transoceanic
10:14AM 55.7699 -23.2444 261° West 440 506 36,000  Level FlightAware Transoceanic
10:15AM 55.7515 -23.4592 261° West 440 506 36,000  Level FlightAware Transoceanic
10:16AM 55.7328 -23.6738 261° West 440 506 36,000  Level FlightAware Transoceanic
10:17AM 55.7136 -23.8882 261° West 440 506 36,000  Level FlightAware Transoceanic
10:18AM 55.6942 -24.1024 261° West 440 506 36,000  Level FlightAware Transoceanic
10:19AM 55.6743 -24.3164 261° West 440 506 36,000  Level FlightAware Transoceanic
10:20AM 55.6541 -24.5302 260° West 440 506 36,000  Level FlightAware Transoceanic
10:21AM 55.6335 -24.7437 260° West 440 506 36,000  Level FlightAware Transoceanic
10:22AM 55.6125 -24.9571 260° West 440 506 36,000  Level FlightAware Transoceanic
10:23AM 55.5912 -25.1702 260° West 440 506 36,000  Level FlightAware Transoceanic
10:24AM 55.5695 -25.3830 260° West 440 506 36,000  Level FlightAware Transoceanic
10:25AM 55.5474 -25.5956 260° West 440 506 36,000  Level FlightAware Transoceanic
10:26AM 55.5249 -25.8080 259° West 440 506 36,000  Level FlightAware Transoceanic
10:27AM 55.5021 -26.0202 259° West 440 506 36,000  Level FlightAware Transoceanic
10:28AM 55.4789 -26.2321 259° West 440 506 36,000  Level FlightAware Transoceanic
10:29AM 55.4554 -26.4437 259° West 440 506 36,000  Level FlightAware Transoceanic
10:30AM 55.4315 -26.6551 259° West 440 506 36,000  Level FlightAware Transoceanic
10:31AM 55.4072 -26.8662 258° West 440 506 36,000  Level FlightAware Transoceanic
10:32AM 55.3826 -27.0771 258° West 440 506 36,000  Level FlightAware Transoceanic
10:33AM 55.3576 -27.2877 258° West 440 506 36,000  Level FlightAware Transoceanic
10:34AM 55.3322 -27.4980 258° West 440 506 36,000  Level FlightAware Transoceanic
10:35AM 55.3065 -27.7081 258° West 440 506 36,000  Level FlightAware Transoceanic
10:36AM 55.2804 -27.9179 258° West 440 506 36,000  Level FlightAware Transoceanic
10:37AM 55.2540 -28.1274 257° West 440 506 36,000  Level FlightAware Transoceanic
10:38AM 55.2272 -28.3366 257° West 440 506 36,000  Level FlightAware Transoceanic
10:39AM 55.2000 -28.5456 257° West 440 506 36,000  Level FlightAware Transoceanic
10:40AM 55.1725 -28.7542 257° West 440 506 36,000  Level FlightAware Transoceanic
10:41AM 55.1446 -28.9626 257° West 440 506 36,000  Level FlightAware Transoceanic
10:42AM 55.1164 -29.1707 257° West 440 506 36,000  Level FlightAware Transoceanic
10:43AM 55.0878 -29.3785 256° West 440 506 36,000  Level FlightAware Transoceanic
10:44AM 55.0589 -29.5859 256° West 440 506 36,000  Level FlightAware Transoceanic
10:45AM 55.0296 -29.7931 256° West 440 506 36,000  Level FlightAware Transoceanic
10:46AM 55.0004 -29.9975 256° West  Level FlightAware Approximate
10:47AM 54.9709 -30.2016 256° West  Level FlightAware Approximate
10:48AM 54.9882 -30.2043 264° West  Level FlightAware Approximate
10:49AM 54.9757 -30.4137 264° West  Level FlightAware Approximate
10:50AM 54.9629 -30.6229 264° West  Level FlightAware Approximate
10:50AM 55.0000 -30.0000 264° West 432 497 36,000  Level ETMS Enhanced Traffic Management System
10:51AM 54.9497 -30.8320 264° West  Level FlightAware Approximate
10:52AM 54.9361 -31.0410 264° West  Level FlightAware Approximate
10:53AM 54.9222 -31.2498 263° West  Level FlightAware Approximate
10:54AM 54.9080 -31.4584 263° West  Level FlightAware Approximate
10:55AM 54.8934 -31.6669 263° West  Level FlightAware Approximate
10:56AM 54.8635 -32.0777 263° West 432 497 36,000  Level FlightAware Transoceanic
10:57AM 54.8479 -32.2846 262° West 432 497 36,000  Level FlightAware Transoceanic
10:58AM 54.8320 -32.4914 262° West 432 497 36,000  Level FlightAware Transoceanic
10:59AM 54.8157 -32.6981 262° West 432 497 36,000  Level FlightAware Transoceanic
11:00AM 54.7990 -32.9045 262° West 432 497 36,000  Level FlightAware Transoceanic
11:01AM 54.7820 -33.1108 262° West 432 497 36,000  Level FlightAware Transoceanic
11:02AM 54.7647 -33.3169 262° West 432 497 36,000  Level FlightAware Transoceanic
11:03AM 54.7470 -33.5228 261° West 432 497 36,000  Level FlightAware Transoceanic
11:04AM 54.7289 -33.7286 261° West 432 497 36,000  Level FlightAware Transoceanic
11:05AM 54.7105 -33.9342 261° West 432 497 36,000  Level FlightAware Transoceanic
11:06AM 54.6918 -34.1395 261° West 432 497 36,000  Level FlightAware Transoceanic
11:07AM 54.6727 -34.3447 261° West 432 497 36,000  Level FlightAware Transoceanic
11:08AM 54.6533 -34.5497 261° West 432 497 36,000  Level FlightAware Transoceanic
11:09AM 54.6335 -34.7545 260° West 432 497 36,000  Level FlightAware Transoceanic
11:10AM 54.6134 -34.9591 260° West 432 497 36,000  Level FlightAware Transoceanic
11:11AM 54.5929 -35.1635 260° West 432 497 36,000  Level FlightAware Transoceanic
11:12AM 54.5721 -35.3677 260° West 432 497 36,000  Level FlightAware Transoceanic
11:13AM 54.5509 -35.5717 260° West 432 497 36,000  Level FlightAware Transoceanic
11:14AM 54.5294 -35.7754 260° West 432 497 36,000  Level FlightAware Transoceanic
11:15AM 54.5076 -35.9790 259° West 432 497 36,000  Level FlightAware Transoceanic
11:16AM 54.4854 -36.1823 259° West 432 497 36,000  Level FlightAware Transoceanic
11:17AM 54.4629 -36.3854 259° West 432 497 36,000  Level FlightAware Transoceanic
11:18AM 54.4400 -36.5883 259° West 432 497 36,000  Level FlightAware Transoceanic
11:19AM 54.4168 -36.7909 259° West 432 497 36,000  Level FlightAware Transoceanic
11:20AM 54.3933 -36.9933 259° West 432 497 36,000  Level FlightAware Transoceanic
11:21AM 54.3694 -37.1955 258° West 432 497 36,000  Level FlightAware Transoceanic
11:22AM 54.3452 -37.3975 258° West 432 497 36,000  Level FlightAware Transoceanic
11:23AM 54.3206 -37.5992 258° West 432 497 36,000  Level FlightAware Transoceanic
11:24AM 54.2957 -37.8006 258° West 432 497 36,000  Level FlightAware Transoceanic
11:25AM 54.2705 -38.0019 258° West 432 497 36,000  Level FlightAware Transoceanic
11:26AM 54.2450 -38.2028 258° West 432 497 36,000  Level FlightAware Transoceanic
11:27AM 54.2191 -38.4035 257° West 432 497 36,000  Level FlightAware Transoceanic
11:28AM 54.1928 -38.6040 257° West 432 497 36,000  Level FlightAware Transoceanic
11:29AM 54.1663 -38.8042 257° West 432 497 36,000  Level FlightAware Transoceanic
11:30AM 54.1394 -39.0042 257° West 432 497 36,000  Level FlightAware Transoceanic
11:31AM 54.1122 -39.2039 257° West 432 497 36,000  Level FlightAware Transoceanic
11:32AM 54.0846 -39.4033 257° West 432 497 36,000  Level FlightAware Transoceanic
11:33AM 54.0568 -39.6025 257° West 432 497 36,000  Level FlightAware Transoceanic
11:34AM 54.0285 -39.8014 256° West 432 497 36,000  Level FlightAware Transoceanic
11:35AM 53.9999 -40.0010 256° West  Level FlightAware Approximate
11:36AM 53.9995 -40.0020 248° West  Level FlightAware Approximate
11:37AM 53.9535 -40.1919 248° West  Level FlightAware Approximate
11:38AM 53.9072 -40.3814 248° West  Level FlightAware Approximate
11:38AM 54.0000 -40.0000 248° West 406 467 36,000  Level ETMS Enhanced Traffic Management System
11:39AM 53.8606 -40.5704 247° West  Level FlightAware Approximate
11:40AM 53.8141 -40.7579 247° West  Level FlightAware Approximate
11:41AM 53.7672 -40.9450 247° West  Level FlightAware Approximate
11:42AM 53.7200 -41.1316 247° West  Level FlightAware Approximate
11:43AM 53.6725 -41.3179 247° West  Level FlightAware Approximate
11:44AM 53.6248 -41.5037 247° West  Level FlightAware Approximate
11:45AM 53.6053 -41.5867 247° West 406 467 36,000  Level FlightAware Transoceanic
11:46AM 53.5601 -41.7612 246° West 406 467 36,000  Level FlightAware Transoceanic
11:47AM 53.5147 -41.9352 246° West 406 467 36,000  Level FlightAware Transoceanic
11:48AM 53.4691 -42.1089 246° West 406 467 36,000  Level FlightAware Transoceanic
11:49AM 53.4232 -42.2822 246° West 406 467 36,000  Level FlightAware Transoceanic
11:50AM 53.3770 -42.4552 246° West 406 467 36,000  Level FlightAware Transoceanic
11:51AM 53.3306 -42.6278 246° West 406 467 36,000  Level FlightAware Transoceanic
11:52AM 53.2840 -42.8000 246° West 406 467 36,000  Level FlightAware Transoceanic
11:53AM 53.2371 -42.9718 245° Southwest 406 467 36,000  Level FlightAware Transoceanic
11:54AM 53.1899 -43.1433 245° Southwest 406 467 36,000  Level FlightAware Transoceanic
11:55AM 53.1425 -43.3143 245° Southwest 406 467 36,000  Level FlightAware Transoceanic
11:56AM 53.0949 -43.4850 245° Southwest 406 467 36,000  Level FlightAware Transoceanic
11:57AM 53.0470 -43.6553 245° Southwest 406 467 36,000  Level FlightAware Transoceanic
11:58AM 52.9989 -43.8253 245° Southwest 406 467 36,000  Level FlightAware Transoceanic
11:59AM 52.9505 -43.9948 245° Southwest 406 467 36,000  Level FlightAware Transoceanic
12:00PM 52.9019 -44.1640 244° Southwest 406 467 36,000  Level FlightAware Transoceanic
12:01PM 52.8531 -44.3328 244° Southwest 406 467 36,000  Level FlightAware Transoceanic
12:02PM 52.8040 -44.5012 244° Southwest 406 467 36,000  Level FlightAware Transoceanic
12:03PM 52.7547 -44.6693 244° Southwest 406 467 36,000  Level FlightAware Transoceanic
12:04PM 52.7051 -44.8369 244° Southwest 406 467 36,000  Level FlightAware Transoceanic
12:05PM 52.6553 -45.0042 244° Southwest 406 467 36,000  Level FlightAware Transoceanic
12:06PM 52.6053 -45.1711 244° Southwest 406 467 36,000  Level FlightAware Transoceanic
12:07PM 52.5551 -45.3376 244° Southwest 406 467 36,000  Level FlightAware Transoceanic
12:08PM 52.5046 -45.5037 243° Southwest 406 467 36,000  Level FlightAware Transoceanic
12:09PM 52.4538 -45.6694 243° Southwest 406 467 36,000  Level FlightAware Transoceanic
12:10PM 52.4029 -45.8348 243° Southwest 406 467 36,000  Level FlightAware Transoceanic
12:11PM 52.3517 -45.9998 243° Southwest 406 467 36,000  Level FlightAware Transoceanic
12:12PM 52.3003 -46.1644 243° Southwest 406 467 36,000  Level FlightAware Transoceanic
12:13PM 52.2486 -46.3286 243° Southwest 406 467 36,000  Level FlightAware Transoceanic
12:14PM 52.1968 -46.4924 243° Southwest 406 467 36,000  Level FlightAware Transoceanic
12:15PM 52.1447 -46.6559 242° Southwest 406 467 36,000  Level FlightAware Transoceanic
12:16PM 52.0924 -46.8190 242° Southwest 406 467 36,000  Level FlightAware Transoceanic
12:17PM 52.0398 -46.9816 242° Southwest 406 467 36,000  Level FlightAware Transoceanic
12:18PM 51.9870 -47.1439 242° Southwest 406 467 36,000  Level FlightAware Transoceanic
12:19PM 51.9340 -47.3059 242° Southwest 406 467 36,000  Level FlightAware Transoceanic
12:20PM 51.8808 -47.4674 242° Southwest 406 467 36,000  Level FlightAware Transoceanic
12:21PM 51.8274 -47.6286 242° Southwest 406 467 36,000  Level FlightAware Transoceanic
12:22PM 51.7737 -47.7893 242° Southwest 406 467 36,000  Level FlightAware Transoceanic
12:23PM 51.7198 -47.9497 241° Southwest 406 467 36,000  Level FlightAware Transoceanic
12:24PM 51.6658 -48.1097 241° Southwest 406 467 36,000  Level FlightAware Transoceanic
12:25PM 51.6115 -48.2693 241° Southwest 406 467 36,000  Level FlightAware Transoceanic
12:26PM 51.5569 -48.4286 241° Southwest 406 467 36,000  Level FlightAware Transoceanic
12:27PM 51.5022 -48.5874 241° Southwest 406 467 36,000  Level FlightAware Transoceanic
12:28PM 51.4472 -48.7459 241° Southwest 406 467 36,000  Level FlightAware Transoceanic
12:29PM 51.3921 -48.9040 241° Southwest 406 467 36,000  Level FlightAware Transoceanic
12:30PM 51.3367 -49.0617 241° Southwest 406 467 36,000  Level FlightAware Transoceanic
12:31PM 51.2811 -49.2191 240° Southwest 406 467 36,000  Level FlightAware Transoceanic
12:32PM 51.2253 -49.3760 240° Southwest 406 467 36,000  Level FlightAware Transoceanic
12:33PM 51.1693 -49.5326 240° Southwest 406 467 36,000  Level FlightAware Transoceanic
12:34PM 51.1131 -49.6888 240° Southwest 406 467 36,000  Level FlightAware Transoceanic
12:35PM 51.0566 -49.8446 240° Southwest 406 467 36,000  Level FlightAware Transoceanic
12:36PM 50.9964 -50.0097 240° Southwest  Level FlightAware Approximate
12:37PM 50.9859 -50.0000 180° South  Level FlightAware Approximate
12:38PM 50.9438 -50.1754 250° West  Level FlightAware Approximate
12:39PM 50.9031 -50.3544 250° West  Level FlightAware Approximate
12:39PM 51.0000 -50.0000 250° West 419 482 36,000  Level ETMS Enhanced Traffic Management System
12:40PM 50.8621 -50.5330 250° West  Level FlightAware Approximate
12:41PM 50.8208 -50.7113 250° West  Level FlightAware Approximate
12:42PM 50.7793 -50.8892 250° West  Level FlightAware Approximate
12:42PM 50.7290 -51.1440 250° West 408 470 36,000  Level FlightAware
12:43PM 50.7375 -51.0669 250° West  Level FlightAware Approximate
12:43PM 50.6930 -51.2870 248° West 409 471 36,000  Level FlightAware
12:44PM 50.6690 -51.3810 250° West 409 471 36,000  Level FlightAware
12:45PM 50.6450 -51.4760 248° West 409 471 36,000  Level FlightAware
12:45PM 50.6210 -51.5700 248° West 409 471 36,000  Level FlightAware
12:46PM 50.5900 -51.6870 247° West 409 471 36,000  Level FlightAware
12:47PM 50.5660 -51.7810 248° West 409 471 36,000  Level FlightAware
12:47PM 50.5420 -51.8750 248° West 409 471 36,000  Level FlightAware
12:48PM 50.5180 -51.9690 248° West 409 471 36,000  Level FlightAware
12:49PM 50.4940 -52.0630 248° West 409 471 36,000  Level FlightAware
12:50PM 50.4640 -52.1800 248° West 409 471 36,000  Level FlightAware
12:50PM 50.4400 -52.2730 248° West 409 471 36,000  Level FlightAware
12:51PM 50.4160 -52.3670 248° West 409 471 36,000 1,380 Level FlightAware
12:52PM 50.3150 -52.7010 245° Southwest 417 480 38,000 1,380 Climbing FlightAware
12:52PM 50.2850 -52.8090 247° West 415 478 38,000  Level FlightAware
12:53PM 50.2550 -52.9160 246° West 415 478 38,000  Level FlightAware
12:53PM 50.2333 -52.9000 246° West 410 472 38,000  Level Gander Center
12:54PM 50.1833 -53.0667 245° Southwest 420 483 38,000  Level Gander Center
12:55PM 50.1333 -53.2333 245° Southwest 420 483 38,000  Level Gander Center
12:56PM 50.1167 -53.3500 257° West 410 472 38,000  Level Moncton Center
01:02PM 49.8370 -54.3430 257° West 412 474 38,000  Level FlightAware
01:02PM 49.8167 -54.3833 257° West 410 472 38,000  Level Gander Center
01:03PM 49.7833 -54.4667 238° Southwest 410 472 38,000  Level Gander Center
01:04PM 49.7333 -54.6333 245° Southwest 410 472 38,000  Level Gander Center
01:05PM 49.6833 -54.7833 243° Southwest 410 472 38,000  Level Gander Center
01:06PM 49.6333 -54.9500 245° Southwest 410 472 38,000  Level Gander Center
01:07PM 49.5833 -55.1167 245° Southwest 410 472 38,000  Level Gander Center
01:08PM 49.5500 -55.2667 251° West 410 472 38,000  Level Gander Center
01:09PM 49.4833 -55.4333 238° Southwest 410 472 38,000  Level Gander Center
01:09PM 49.4667 -55.4833 243° Southwest 410 472 38,000  Level Gander Center
01:15PM 49.1900 -56.4190 243° Southwest 415 478 38,000  Level FlightAware
01:16PM 49.1260 -56.6160 244° Southwest 412 474 38,000  Level FlightAware
01:22PM 48.8220 -57.5300 243° Southwest 414 476 38,000  Level FlightAware
01:23PM 48.7920 -57.6170 242° Southwest 413 475 38,000  Level FlightAware
01:23PM 48.7490 -57.7460 243° Southwest 413 475 38,000  Level FlightAware
01:24PM 48.7160 -57.8430 243° Southwest 410 472 38,000  Level FlightAware
01:25PM 48.6640 -57.9950 243° Southwest 410 472 38,000  Level FlightAware
01:26PM 48.6290 -58.0990 243° Southwest 411 473 38,000  Level FlightAware
01:26PM 48.5970 -58.1900 242° Southwest 411 473 38,000  Level FlightAware
01:27PM 48.5530 -58.3170 242° Southwest 412 474 38,000  Level FlightAware
01:28PM 48.5120 -58.4340 242° Southwest 412 474 38,000  Level FlightAware
01:29PM 48.4770 -58.5330 242° Southwest 412 474 38,000  Level FlightAware
01:29PM 48.4350 -58.6530 242° Southwest 414 476 38,000  Level FlightAware
01:30PM 48.4000 -58.7520 242° Southwest 414 476 38,000  Level FlightAware
01:31PM 48.3700 -58.8390 243° Southwest 414 476 38,000  Level FlightAware
01:32PM 48.3390 -58.9250 242° Southwest 414 476 38,000  Level FlightAware
01:32PM 48.3080 -59.0120 242° Southwest 414 476 38,000  Level FlightAware
01:33PM 48.2700 -59.1200 242° Southwest 414 476 38,000  Level FlightAware
01:34PM 48.2040 -59.3030 242° Southwest 412 474 38,000  Level FlightAware
01:35PM 48.1550 -59.4370 241° Southwest 413 475 38,000  Level FlightAware
01:36PM 48.1060 -59.5730 242° Southwest 415 478 38,000  Level FlightAware
01:36PM 48.0740 -59.6580 241° Southwest 415 478 38,000  Level FlightAware
01:37PM 48.0430 -59.7440 242° Southwest 415 478 38,000  Level FlightAware
01:38PM 48.0110 -59.8290 241° Southwest 415 478 38,000  Level FlightAware
01:38PM 47.9790 -59.9140 241° Southwest 415 478 38,000  Level FlightAware
01:39PM 47.9400 -60.0210 241° Southwest 415 478 38,000  Level FlightAware
01:40PM 47.9080 -60.1060 241° Southwest 415 478 38,000  Level FlightAware
01:40PM 47.8770 -60.1910 241° Southwest 415 478 38,000  Level FlightAware
01:41PM 47.8450 -60.2760 241° Southwest 415 478 38,000  Level FlightAware
01:42PM 47.8130 -60.3620 241° Southwest 415 478 38,000  Level FlightAware
01:43PM 47.7740 -60.4680 241° Southwest 415 478 38,000  Level FlightAware
01:43PM 47.7420 -60.5530 241° Southwest 415 478 38,000  Level FlightAware
01:44PM 47.7100 -60.6380 241° Southwest 415 478 38,000  Level FlightAware
01:45PM 47.6790 -60.7220 241° Southwest 415 478 38,000  Level FlightAware
01:46PM 47.5390 -61.0850 240° Southwest 415 478 38,000  Level FlightAware
01:46PM 47.5010 -61.1840 240° Southwest 417 480 38,000  Level FlightAware
01:47PM 47.4600 -61.2900 240° Southwest 416 479 38,000  Level FlightAware
01:48PM 47.4220 -61.3890 240° Southwest 414 476 38,000  Level FlightAware
01:48PM 47.3770 -61.5040 240° Southwest 414 476 38,000  Level FlightAware
01:49PM 47.3390 -61.6010 240° Southwest 413 475 38,000  Level FlightAware
01:50PM 47.3020 -61.6960 240° Southwest 412 474 38,000  Level FlightAware
01:51PM 47.2630 -61.7940 240° Southwest 411 473 38,000  Level FlightAware
01:51PM 47.2240 -61.8920 240° Southwest 411 473 38,000  Level FlightAware
01:52PM 47.1830 -61.9950 240° Southwest 411 473 38,000  Level FlightAware
01:53PM 47.1440 -62.0910 239° Southwest 411 473 38,000  Level FlightAware
01:53PM 47.1060 -62.1850 239° Southwest 411 473 38,000  Level FlightAware
01:54PM 47.0570 -62.3080 240° Southwest 409 471 38,000  Level FlightAware
01:55PM 47.0250 -62.3850 239° Southwest 408 470 38,000  Level FlightAware
01:55PM 46.9780 -62.5000 239° Southwest 407 468 38,000  Level FlightAware
01:56PM 46.9450 -62.5800 239° Southwest 407 468 38,000  Level FlightAware
01:57PM 46.9120 -62.6600 239° Southwest 407 468 38,000  Level FlightAware
01:57PM 46.8790 -62.7410 239° Southwest 407 468 38,000  Level FlightAware
01:58PM 46.8460 -62.8210 239° Southwest 407 468 38,000  Level FlightAware
01:59PM 46.8130 -62.9010 239° Southwest 407 468 38,000  Level FlightAware
02:00PM 46.7720 -63.0010 239° Southwest 407 468 38,000  Level FlightAware
02:00PM 46.7390 -63.0810 239° Southwest 407 468 38,000  Level FlightAware
02:01PM 46.7060 -63.1610 239° Southwest 407 468 38,000  Level FlightAware
02:02PM 46.6730 -63.2410 239° Southwest 407 468 38,000  Level FlightAware
02:02PM 46.6320 -63.3410 239° Southwest 407 468 38,000  Level FlightAware
02:03PM 46.5990 -63.4210 239° Southwest 407 468 38,000  Level FlightAware
02:04PM 46.5660 -63.5010 239° Southwest 407 468 38,000  Level FlightAware
02:04PM 46.5330 -63.5810 239° Southwest 407 468 38,000 240 Level FlightAware
02:08PM 46.2400 -64.2400 237° Southwest 420 483 39,000 240 Climbing FlightAware
02:08PM 46.1980 -64.3350 237° Southwest 415 478 39,000  Level FlightAware
02:09PM 46.1560 -64.4300 237° Southwest 412 474 39,000  Level FlightAware
02:10PM 46.1200 -64.5080 236° Southwest 412 474 39,000  Level FlightAware
02:11PM 46.0550 -64.6580 238° Southwest 409 471 39,000  Level FlightAware
02:12PM 45.9960 -64.7870 237° Southwest 411 473 39,000  Level FlightAware
02:12PM 45.9520 -64.8850 237° Southwest 415 478 39,000  Level FlightAware
02:13PM 45.9090 -64.9790 237° Southwest 418 481 39,000  Level FlightAware
02:14PM 45.8610 -65.0860 237° Southwest 418 481 39,000  Level FlightAware
02:15PM 45.8200 -65.1750 237° Southwest 421 484 39,000  Level FlightAware
02:15PM 45.7700 -65.2860 237° Southwest 422 486 39,000  Level FlightAware
02:16PM 45.7290 -65.3770 237° Southwest 422 486 39,000  Level FlightAware
02:17PM 45.6860 -65.4700 237° Southwest 422 486 39,000  Level FlightAware
02:17PM 45.6370 -65.5780 237° Southwest 423 487 39,000  Level FlightAware
02:18PM 45.5950 -65.6700 237° Southwest 422 486 39,000  Level FlightAware
02:19PM 45.5470 -65.7730 236° Southwest 422 486 39,000  Level FlightAware
02:19PM 45.5040 -65.8650 236° Southwest 422 486 39,000  Level FlightAware
02:20PM 45.4600 -65.9580 236° Southwest 422 486 39,000  Level FlightAware
02:21PM 45.4100 -66.0630 236° Southwest 422 486 39,000  Level FlightAware
02:22PM 45.3670 -66.1550 236° Southwest 421 484 39,000  Level FlightAware
02:22PM 45.3190 -66.2560 236° Southwest 420 483 39,000  Level FlightAware
02:23PM 45.2760 -66.3470 236° Southwest 422 486 39,000  Level FlightAware
02:24PM 45.2320 -66.4390 236° Southwest 421 484 39,000  Level FlightAware
02:24PM 45.1830 -66.5440 237° Southwest 421 484 39,000  Level FlightAware
02:25PM 45.1390 -66.6370 236° Southwest 421 484 39,000  Level FlightAware
02:26PM 45.1000 -66.7190 236° Southwest 418 481 39,000  Level FlightAware
02:26PM 45.0510 -66.8210 236° Southwest 423 487 39,000  Level FlightAware
02:27PM 45.0000 -66.9250 235° Southwest 419 482 39,000  Level FlightAware
02:28PM 44.9570 -67.0150 236° Southwest 424 488 39,000  Level FlightAware
02:29PM 44.9120 -67.1080 236° Southwest 420 483 39,000  Level FlightAware
02:29PM 44.8660 -67.2140 239° Southwest 426 490 39,000  Level FlightAware
02:30PM 44.8270 -67.3090 240° Southwest 427 491 39,000  Level FlightAware
02:31PM 44.7880 -67.4070 241° Southwest 426 490 39,000  Level FlightAware
02:31PM 44.7440 -67.5140 240° Southwest 426 490 39,000  Level FlightAware
02:32PM 44.7040 -67.6110 240° Southwest 427 491 39,000  Level FlightAware
02:33PM 44.6650 -67.7060 240° Southwest 426 490 39,000  Level FlightAware
02:33PM 44.6090 -67.8010 230° Southwest 423 487 39,000  Level FlightAware
02:34PM 44.5450 -67.8630 215° Southwest 424 488 39,000  Level FlightAware
02:35PM 44.4710 -67.9320 214° Southwest 425 489 39,000  Level FlightAware
02:36PM 44.4050 -67.9930 213° Southwest 427 491 39,000  Level FlightAware
02:36PM 44.3400 -68.0530 213° Southwest 429 494 39,000  Level FlightAware
02:37PM 44.2650 -68.1220 213° Southwest 424 488 39,000  Level FlightAware
02:38PM 44.1980 -68.1840 214° Southwest 426 490 39,000  Level FlightAware
02:38PM 44.1240 -68.2520 213° Southwest 428 493 39,000  Level FlightAware
02:39PM 44.0550 -68.3140 213° Southwest 428 493 39,000  Level FlightAware
02:40PM 43.9970 -68.3670 213° Southwest 428 493 39,000  Level FlightAware
02:40PM 43.9090 -68.4350 209° Southwest 436 502 39,000  Level FlightAware
02:41PM 43.8310 -68.4690 197° South 435 501 39,000  Level FlightAware
02:42PM 43.7400 -68.5090 198° South 436 502 39,000  Level FlightAware
02:42PM 43.6760 -68.5380 198° South 436 502 39,000  Level FlightAware
02:43PM 43.5920 -68.5740 197° South 436 502 39,000  Level FlightAware
02:44PM 43.5270 -68.6010 197° South 436 502 39,000  Level FlightAware
02:45PM 43.4500 -68.6790 216° Southwest 39,000  Level FlightAware
02:46PM 43.3260 -68.7940 214° Southwest 39,000  Level FlightAware
02:47PM 43.2520 -68.8660 215° Southwest 435 501 39,000  Level FlightAware
02:47PM 43.1890 -68.9280 216° Southwest 434 499 39,000  Level FlightAware
02:48PM 43.1130 -69.0020 215° Southwest 434 499 39,000  Level FlightAware
02:49PM 43.0480 -69.0660 216° Southwest 433 498 39,000  Level FlightAware
02:49PM 42.9730 -69.1390 215° Southwest 432 497 39,000  Level FlightAware
02:50PM 42.9090 -69.2000 215° Southwest 432 497 39,000  Level FlightAware
02:51PM 42.8430 -69.2630 215° Southwest 432 497 39,000  Level FlightAware
02:51PM 42.7690 -69.3350 216° Southwest 433 498 39,000  Level FlightAware
02:52PM 42.7040 -69.3960 215° Southwest 432 497 39,000  Level FlightAware
02:53PM 42.6380 -69.4590 215° Southwest 431 496 39,000  Level FlightAware
02:54PM 42.5680 -69.5250 215° Southwest 432 497 39,000  Level FlightAware
02:54PM 42.5010 -69.5890 215° Southwest 432 497 39,000  Level FlightAware
02:55PM 42.4270 -69.6600 215° Southwest 434 499 39,000  Level FlightAware
02:56PM 42.3620 -69.7220 215° Southwest 435 501 39,000  Level FlightAware
02:56PM 42.2980 -69.7830 215° Southwest 435 501 39,000  Level FlightAware
02:57PM 42.2260 -69.8510 215° Southwest 437 503 39,000  Level FlightAware
02:58PM 42.1620 -69.9110 215° Southwest 437 503 39,000  Level FlightAware
02:58PM 42.0810 -69.9880 215° Southwest 432 497 39,000  Level FlightAware
02:59PM 42.0150 -70.0500 215° Southwest 432 497 39,000  Level FlightAware
03:00PM 41.9400 -70.1210 215° Southwest 432 497 39,000  Level FlightAware
03:01PM 41.8750 -70.1820 215° Southwest 433 498 39,000 -240 Level FlightAware
03:01PM 41.8170 -70.2360 215° Southwest 435 501 38,700 -1,140 Descending FlightAware
03:02PM 41.7400 -70.2970 211° Southwest 441 507 37,500 -1,800 Descending FlightAware
03:02PM 41.6840 -70.3160 194° South 441 507 36,300 -840 Descending FlightAware
03:03PM 41.5900 -70.3640 201° Southwest 441 507 36,300 -2,280 Level FlightAware
03:04PM 41.5070 -70.3750 186° South 417 480 33,100 -3,420 Descending FlightAware
03:05PM 41.3840 -70.4190 195° South 417 480 30,900 -1,200 Descending FlightAware
03:06PM 41.3090 -70.4480 196° South 417 480 30,900 -780 Level FlightAware
03:06PM 41.2820 -70.5380 248° West 423 487 30,000 -720 Descending FlightAware
03:07PM 41.2350 -70.6460 240° Southwest 425 489 30,000  Level FlightAware
03:08PM 41.1890 -70.7530 240° Southwest 427 491 30,000  Level FlightAware
03:08PM 41.1570 -70.8250 239° Southwest 424 488 30,000  Level FlightAware
03:09PM 41.1000 -70.9550 240° Southwest 424 488 30,000  Level FlightAware
03:10PM 41.0640 -71.0380 240° Southwest 425 489 30,000  Level FlightAware
03:11PM 41.0230 -71.1330 240° Southwest 425 489 30,000  Level FlightAware
03:11PM 40.9820 -71.2230 239° Southwest 425 489 30,000  Level FlightAware
03:12PM 40.9420 -71.3130 240° Southwest 428 493 30,000  Level FlightAware
03:13PM 40.8950 -71.4180 239° Southwest 433 498 30,000  Level FlightAware
03:13PM 40.8440 -71.5330 240° Southwest 438 504 30,000  Level FlightAware
03:14PM 40.8110 -71.6070 240° Southwest 439 505 30,000  Level FlightAware
03:15PM 40.7580 -71.7240 239° Southwest 435 501 30,000 -480 Level FlightAware
03:15PM 40.7160 -71.8170 239° Southwest 430 495 29,300 -600 Descending FlightAware
03:16PM 40.6810 -71.8940 239° Southwest 430 495 29,200 -1,380 Descending FlightAware
03:17PM 40.6310 -72.0030 239° Southwest 419 482 27,400 -1,920 Descending FlightAware
03:18PM 40.5930 -72.0870 239° Southwest 415 478 26,500 -1,440 Descending FlightAware
03:18PM 40.5450 -72.1910 239° Southwest 413 475 25,400 -1,020 Descending FlightAware
03:19PM 40.4990 -72.2890 238° Southwest 413 475 24,900 -1,200 Descending FlightAware
03:20PM 40.4530 -72.3920 240° Southwest 409 471 23,500 -1,560 Descending FlightAware
03:21PM 40.4100 -72.4840 238° Southwest 403 464 22,600 -1,200 Descending FlightAware
03:21PM 40.3690 -72.5720 239° Southwest 400 460 21,800 -1,140 Descending FlightAware
03:22PM 40.3290 -72.6570 238° Southwest 398 458 21,000 -1,140 Descending FlightAware
03:23PM 40.2890 -72.7430 239° Southwest 390 449 20,200 -780 Descending FlightAware
03:23PM 40.2520 -72.8230 239° Southwest 379 436 20,000 -180 Descending FlightAware
03:24PM 40.2090 -72.9120 238° Southwest 387 445 20,000  Level FlightAware
03:25PM 40.1720 -72.9900 238° Southwest 389 448 20,000  Level FlightAware
03:25PM 40.1330 -73.0710 238° Southwest 388 447 20,000  Level FlightAware
03:26PM 40.0910 -73.1600 238° Southwest 389 448 20,000  Level FlightAware
03:27PM 40.0530 -73.2390 238° Southwest 388 447 20,000  Level FlightAware
03:28PM 40.0090 -73.3300 238° Southwest 388 447 20,000  Level FlightAware
03:28PM 39.9700 -73.4100 238° Southwest 388 447 20,000  Level FlightAware
03:29PM 39.9461 -73.4608 238° Southwest 388 447 20,000  Level FlightAware ADS-B
03:30PM 39.8880 -73.5740 236° Southwest 388 447 20,000  Level FlightAware
03:30PM 39.8768 -73.5919 231° Southwest 389 448 20,000 -480 Level FlightAware ADS-B
03:30PM 39.8383 -73.6527 231° Southwest 391 450 19,700 -960 Descending FlightAware ADS-B
03:31PM 39.8021 -73.7090 230° Southwest 386 444 19,000 -1,380 Descending FlightAware ADS-B
03:32PM 39.7618 -73.7713 230° Southwest 382 440 18,200 -1,320 Descending FlightAware ADS-B
03:32PM 39.7241 -73.8295 230° Southwest 381 438 17,500 -1,320 Descending FlightAware ADS-B
03:33PM 39.6888 -73.8843 230° Southwest 373 429 16,800 -1,320 Descending FlightAware ADS-B
03:33PM 39.6531 -73.9399 230° Southwest 371 427 16,100 -1,260 Descending FlightAware ADS-B
03:34PM 39.6186 -73.9935 230° Southwest 370 426 15,500 -1,260 Descending FlightAware ADS-B
03:34PM 39.5854 -74.0446 230° Southwest 364 419 14,800 -1,320 Descending FlightAware ADS-B
03:35PM 39.5525 -74.0954 230° Southwest 361 415 14,200 -1,200 Descending FlightAware ADS-B
03:35PM 39.5413 -74.1129 230° Southwest 356 410 14,000 -780 Descending FlightAware ADS-B
03:35PM 39.5362 -74.1229 237° Southwest 353 406 14,000  Level FlightAware ADS-B
03:35PM 39.5271 -74.1488 246° West 351 404 14,000  Level FlightAware ADS-B
03:36PM 39.5221 -74.2051 263° West 353 406 14,000 -240 Level FlightAware ADS-B
03:36PM 39.5228 -74.2676 271° West 343 395 13,800 -840 Descending FlightAware ADS-B
03:37PM 39.5245 -74.3294 272° West 329 379 13,200 -1,140 Descending FlightAware ADS-B
03:37PM 39.5257 -74.4046 271° West 301 346 12,500 -1,080 Descending FlightAware ADS-B
03:38PM 39.5261 -74.4657 271° West 283 326 11,900 -900 Descending FlightAware ADS-B
03:39PM 39.5260 -74.5200 270° West 269 310 11,400 -1,020 Descending FlightAware
03:39PM 39.5257 -74.5543 269° West 279 321 11,000 -1,200 Descending FlightAware ADS-B
03:39PM 39.5262 -74.6037 271° West 260 299 10,500 -1,020 Descending FlightAware ADS-B
03:40PM 39.5271 -74.6520 271° West 266 306 10,000 -1,080 Descending FlightAware ADS-B
03:40PM 39.5274 -74.6761 271° West 266 306 9,700 -1,200 Descending FlightAware ADS-B
03:40PM 39.5276 -74.6856 272° West 263 303 9,600 -1,200 Descending FlightAware ADS-B
03:40PM 39.5281 -74.6909 277° West 262 302 9,500 -1,140 Descending FlightAware ADS-B
03:40PM 39.5302 -74.7015 284° West 260 299 9,400 -1,020 Descending FlightAware ADS-B
03:40PM 39.5331 -74.7087 298° West 261 300 9,300 -780 Descending FlightAware ADS-B
03:41PM 39.5353 -74.7127 305° West 262 302 9,300 -840 Level FlightAware ADS-B
03:41PM 39.5522 -74.7354 314° West 265 305 9,000 -480 Descending FlightAware ADS-B
03:41PM 39.5671 -74.7551 314° West 262 302 9,000 -180 Level FlightAware ADS-B
03:42PM 39.5884 -74.7838 314° West 263 303 8,900 -480 Descending FlightAware ADS-B
03:42PM 39.6019 -74.8018 314° West 260 299 8,700 -600 Descending FlightAware ADS-B
03:42PM 39.6145 -74.8188 314° West 259 298 8,600 -420 Descending FlightAware ADS-B
03:42PM 39.6270 -74.8353 315° West 257 296 8,500 -600 Descending FlightAware ADS-B
03:43PM 39.6404 -74.8533 314° West 255 293 8,300 -900 Descending FlightAware ADS-B
03:43PM 39.6438 -74.8578 314° West 255 293 8,200 -960 Descending FlightAware ADS-B
03:43PM 39.6512 -74.8665 318° Northwest 254 292 8,100 -960 Descending FlightAware ADS-B
03:43PM 39.6658 -74.8818 321° Northwest 254 292 7,800 -1,320 Descending FlightAware ADS-B
03:43PM 39.6811 -74.8957 325° Northwest 254 292 7,400 -1,620 Descending FlightAware ADS-B
03:44PM 39.6909 -74.9045 325° Northwest 254 292 7,100 -1,680 Descending FlightAware ADS-B
03:44PM 39.7058 -74.9180 325° Northwest 248 285 6,700 -1,560 Descending FlightAware ADS-B
03:44PM 39.7199 -74.9307 325° Northwest 236 272 6,300 -1,740 Descending FlightAware ADS-B
03:44PM 39.7341 -74.9438 325° Northwest 226 260 5,800 -1,620 Descending FlightAware ADS-B
03:44PM 39.7424 -74.9512 326° Northwest 222 255 5,600 -1,680 Descending FlightAware ADS-B
03:45PM 39.7523 -74.9601 325° Northwest 213 245 5,200 -2,040 Descending FlightAware ADS-B
03:45PM 39.7625 -74.9690 326° Northwest 211 243 4,800 -2,100 Descending FlightAware ADS-B
03:45PM 39.7734 -74.9791 325° Northwest 213 245 4,300 -2,160 Descending FlightAware ADS-B
03:45PM 39.7865 -74.9911 325° Northwest 207 238 3,700 -1,920 Descending FlightAware ADS-B
03:46PM 39.7982 -75.0018 325° Northwest 205 236 3,300 -1,620 Descending FlightAware ADS-B
03:46PM 39.8103 -75.0126 326° Northwest 211 243 2,900 -1,440 Descending FlightAware ADS-B
03:46PM 39.8260 -75.0260 327° Northwest 214 246 2,500 -1,080 Descending FlightAware ADS-B
03:46PM 39.8328 -75.0322 325° Northwest 205 236 2,400 -420 Descending FlightAware ADS-B
03:47PM 39.8488 -75.0464 326° Northwest 203 234 2,300 -360 Descending FlightAware ADS-B
03:47PM 39.8601 -75.0566 325° Northwest 188 216 2,200 -420 Descending FlightAware ADS-B
03:47PM 39.8709 -75.0662 326° Northwest 184 212 2,100 -300 Descending FlightAware ADS-B
03:47PM 39.8740 -75.0693 322° Northwest 183 211 2,100  Level FlightAware ADS-B
03:47PM 39.8764 -75.0723 316° Northwest 180 207 2,100  Level FlightAware ADS-B
03:47PM 39.8783 -75.0751 311° West 176 203 2,100  Level FlightAware ADS-B
03:47PM 39.8804 -75.0787 307° West 174 200 2,100 -780 Level FlightAware ADS-B
03:48PM 39.8822 -75.0826 301° West 172 198 2,000 -600 Descending FlightAware ADS-B
03:48PM 39.8840 -75.0875 296° West 169 194 2,000 -480 Level FlightAware ADS-B
03:48PM 39.8860 -75.0940 292° West 167 192 1,900 -960 Descending FlightAware ADS-B
03:48PM 39.8877 -75.1061 280° West 157 181 1,700 -900 Descending FlightAware ADS-B
03:48PM 39.8876 -75.1132 269° West 149 171 1,600 -420 Descending FlightAware ADS-B
03:48PM 39.8866 -75.1204 260° West 143 165 1,600 -600 Level FlightAware ADS-B
03:48PM 39.8850 -75.1297 257° West 135 155 1,400 -900 Descending FlightAware ADS-B
03:49PM 39.8826 -75.1415 255° West 131 151 1,200 -720 Descending FlightAware ADS-B
03:49PM 39.8812 -75.1487 256° West 131 151 1,100 -600 Descending FlightAware ADS-B